Time;durP1;ratioP1;P1;durP2;ratioP2;P2;SDS_P1;SDS_P2;PMS_P1;PMS_P2;Temp;Humidity;BMP_temperature;BMP_pressure;BME280_temperature;BME280_humidity;BME280_pressure;Samples;Min_cycle;Max_cycle;Signal;HPM_P1;HPM_P2
2022/06/06 00:02:07;;;;;;;17.85;7.80;;;;;;;-144.47;66.16;53273.22;4999118;28;20528;-68
2022/06/06 00:04:35;;;;;;;11.90;7.57;;;;;;;-144.47;65.72;53322.88;4970264;28;20296;-68
2022/06/06 00:07:01;;;;;;;10.13;7.55;;;;;;;-144.47;65.96;53257.31;4987863;28;20072;-69
2022/06/06 00:09:27;;;;;;;9.10;5.93;;;;;;;-144.47;64.98;53285.13;4987498;28;20053;-69
2022/06/06 00:11:56;;;;;;;10.75;5.95;;;;;;;-144.47;65.15;53287.13;4986946;28;20045;-70
2022/06/06 00:14:22;;;;;;;12.93;5.93;;;;;;;-144.47;65.16;53285.13;4978537;28;20022;-70
2022/06/06 00:16:47;;;;;;;11.35;5.68;;;;;;;-144.47;65.09;53267.25;4969779;28;20019;-68
2022/06/06 00:19:13;;;;;;;9.38;5.45;;;;;;;-144.47;65.34;53303.00;4990475;28;20030;-69
2022/06/06 00:21:40;;;;;;;8.15;5.72;;;;;;;-144.47;65.97;53261.28;4989251;28;20042;-69
2022/06/06 00:24:07;;;;;;;14.77;6.07;;;;;;;-144.47;65.64;53265.25;4998338;28;20022;-68
2022/06/06 00:26:33;;;;;;;15.18;5.60;;;;;;;-144.47;65.82;53267.25;4996890;28;20034;-69
2022/06/06 00:28:59;;;;;;;8.98;5.20;;;;;;;-144.47;66.02;53283.13;4988715;28;20030;-68
2022/06/06 00:36:55;;;;;;;13.98;6.38;;;;;;;-144.47;66.69;53308.97;4988537;28;20149;-69
2022/06/06 00:39:20;;;;;;;10.38;5.68;;;;;;;-144.47;66.72;53269.22;4969448;28;20461;-67
2022/06/06 00:41:52;;;;;;;12.57;6.50;;;;;;;-144.47;66.91;53289.09;4984857;28;20078;-69
2022/06/06 00:44:20;;;;;;;11.98;5.72;;;;;;;-144.47;66.91;53291.09;4970017;28;20145;-67
2022/06/06 00:47:08;;;;;;;7.43;5.30;;;;;;;-144.47;66.17;53237.44;4987299;28;20062;-69
2022/06/06 00:49:41;;;;;;;9.18;4.95;;;;;;;-144.47;65.50;53283.13;4981051;28;20044;-65
2022/06/06 00:52:16;;;;;;;10.43;4.97;;;;;;;-144.47;65.36;53289.09;4986407;28;20134;-65
2022/06/06 00:54:44;;;;;;;9.80;5.18;;;;;;;-144.47;65.60;53279.16;4987940;28;20361;-68
2022/06/06 00:57:15;;;;;;;8.82;4.90;;;;;;;-144.47;65.22;53269.22;4987336;28;20026;-68
2022/06/06 00:59:42;;;;;;;7.95;4.68;;;;;;;-144.47;65.09;53305.00;4986632;28;20197;-69
2022/06/06 01:02:11;;;;;;;7.68;4.50;;;;;;;-144.47;64.22;53271.22;4986924;28;20527;-67
2022/06/06 01:04:39;;;;;;;7.50;4.00;;;;;;;-144.47;63.75;53281.16;4990858;28;20018;-65
2022/06/06 01:07:06;;;;;;;6.10;3.42;;;;;;;-144.47;63.30;53308.97;4991003;28;20391;-68
2022/06/06 01:09:32;;;;;;;6.00;3.47;;;;;;;-144.47;62.85;53239.44;4990318;28;20018;-68
2022/06/06 01:12:01;;;;;;;9.88;3.38;;;;;;;-144.47;62.63;53271.22;4990164;28;20034;-66
2022/06/06 01:14:31;;;;;;;6.93;2.97;;;;;;;-144.47;62.43;53241.44;4990629;28;20558;-66
2022/06/06 01:17:11;;;;;;;6.00;3.20;;;;;;;-144.47;62.66;53297.03;4990524;28;20027;-69
2022/06/06 01:19:51;;;;;;;5.13;3.13;;;;;;;-144.47;62.36;53305.00;4990427;28;20042;-70
2022/06/06 01:22:47;;;;;;;6.93;3.10;;;;;;;-144.47;61.96;53265.25;4991310;28;20037;-69
2022/06/06 01:25:37;;;;;;;5.35;2.80;;;;;;;-144.47;62.28;53263.28;4991408;28;20110;-68
2022/06/06 01:28:21;;;;;;;4.85;3.08;;;;;;;-144.47;61.92;53279.16;4985989;28;20428;-68
2022/06/06 01:30:52;;;;;;;4.53;2.72;;;;;;;-144.47;61.87;53277.19;4990000;28;20038;-68
2022/06/06 01:33:18;;;;;;;5.30;2.58;;;;;;;-144.47;61.82;53267.25;4990146;28;20030;-68
2022/06/06 01:35:46;;;;;;;6.60;2.78;;;;;;;-144.47;61.59;53291.09;4989914;28;20492;-69
2022/06/06 01:38:14;;;;;;;6.10;2.70;;;;;;;-144.47;61.48;53263.28;4989429;28;20049;-68
2022/06/06 01:40:53;;;;;;;4.72;2.42;;;;;;;-144.47;61.71;53301.03;4979309;28;20027;-68
2022/06/06 01:43:20;;;;;;;;;;;;;;;-144.47;61.99;53299.03;4977703;28;20136;-70
2022/06/06 01:45:52;;;;;;;5.68;2.50;;;;;;;-144.47;62.01;53287.13;4990300;28;20421;-69
2022/06/06 01:48:24;;;;;;;5.60;2.08;;;;;;;-144.47;61.83;53291.09;4990244;28;20038;-67
2022/06/06 01:50:50;;;;;;;11.52;2.78;;;;;;;-144.47;62.09;53287.13;4987146;28;20034;-68
2022/06/06 01:53:20;;;;;;;6.75;2.70;;;;;;;-144.47;61.66;53265.25;4988894;28;20034;-67
2022/06/06 01:55:48;;;;;;;4.78;2.50;;;;;;;-144.47;61.17;53249.38;4978431;28;20051;-67
2022/06/06 01:58:27;;;;;;;6.90;2.38;;;;;;;-144.47;61.21;53273.22;4985779;28;20054;-69
2022/06/06 02:00:53;;;;;;;4.85;2.22;;;;;;;-144.47;61.28;53297.03;4988145;28;20022;-69
2022/06/06 02:03:19;;;;;;;5.22;2.10;;;;;;;-144.47;61.50;53281.16;4988906;28;20022;-67
2022/06/06 02:05:45;;;;;;;6.65;2.25;;;;;;;-144.47;61.52;53269.22;4989251;28;20128;-68
2022/06/06 02:08:11;;;;;;;3.80;2.22;;;;;;;-144.47;61.65;53259.31;4988823;28;20042;-67
2022/06/06 02:10:38;;;;;;;4.70;2.70;;;;;;;-144.47;62.14;53301.03;4988312;28;20105;-68
2022/06/06 02:13:04;;;;;;;4.22;2.38;;;;;;;-144.47;62.51;53305.00;4972248;28;20027;-67
2022/06/06 02:15:30;;;;;;;5.32;2.70;;;;;;;-144.47;62.62;53305.00;4981739;28;20033;-68
2022/06/06 02:17:56;;;;;;;4.93;2.63;;;;;;;-144.47;63.04;53275.19;4990067;28;20129;-68
2022/06/06 02:20:26;;;;;;;4.72;2.45;;;;;;;-144.47;62.98;53265.25;4989080;28;20026;-66
2022/06/06 02:22:51;;;;;;;4.57;2.72;;;;;;;-144.47;62.93;53295.06;4990671;28;20048;-69
2022/06/06 02:25:17;;;;;;;5.22;2.38;;;;;;;-144.47;62.97;53273.22;4989788;28;20034;-69
2022/06/06 02:27:43;;;;;;;10.50;3.20;;;;;;;-144.47;63.52;53279.16;4987234;28;20027;-66
2022/06/06 02:30:13;;;;;;;9.30;2.63;;;;;;;-144.47;63.39;53293.06;4987712;28;20121;-67
2022/06/06 02:32:39;;;;;;;7.40;2.60;;;;;;;-144.47;63.35;53271.22;4982490;28;20493;-66
2022/06/06 02:35:06;;;;;;;4.82;2.45;;;;;;;-144.47;63.50;53289.09;4989307;28;20040;-68
2022/06/06 02:37:31;;;;;;;5.03;2.47;;;;;;;-144.47;63.62;53269.22;4990171;28;20041;-67
2022/06/06 02:39:56;;;;;;;3.88;2.20;;;;;;;-144.47;63.59;53299.03;4971514;28;20395;-69
2022/06/06 02:42:22;;;;;;;4.78;2.88;;;;;;;-144.47;63.85;53305.00;4989442;28;20033;-67
2022/06/06 02:44:48;;;;;;;7.47;2.40;;;;;;;-144.47;63.70;53310.94;4989329;28;20018;-67
2022/06/06 02:47:14;;;;;;;4.97;2.25;;;;;;;-144.47;63.82;53269.22;4989308;28;20111;-67
2022/06/06 02:49:39;;;;;;;4.25;2.47;;;;;;;-144.47;63.89;53287.13;4988559;28;20174;-67
2022/06/06 02:52:05;;;;;;;6.57;2.47;;;;;;;-144.47;63.58;53301.03;4972226;28;20070;-68
2022/06/06 02:54:31;;;;;;;7.32;2.30;;;;;;;-144.47;63.97;53305.00;4989249;28;20022;-68
2022/06/06 02:56:59;;;;;;;4.60;2.60;;;;;;;-144.47;63.55;53297.03;4987386;28;20110;-67
2022/06/06 02:59:28;;;;;;;5.55;2.28;;;;;;;-144.47;63.16;53297.03;4988031;28;20511;-68
2022/06/06 03:01:53;;;;;;;5.15;2.60;;;;;;;-144.47;63.40;53241.44;4989079;28;20033;-67
2022/06/06 03:04:19;;;;;;;4.85;2.35;;;;;;;-144.47;63.11;53328.81;4988533;28;20065;-68
2022/06/06 03:06:50;;;;;;;6.55;2.42;;;;;;;-144.47;63.18;53312.94;4989458;28;20106;-67
2022/06/06 03:09:43;;;;;;;5.45;2.10;;;;;;;-144.47;63.53;53312.94;4987271;28;20037;-68
2022/06/06 03:12:18;;;;;;;3.97;2.20;;;;;;;-144.47;62.95;53310.94;4988788;28;20037;-68
2022/06/06 03:15:02;;;;;;;5.85;2.00;;;;;;;-144.47;62.96;53303.00;4982921;28;20500;-69
2022/06/06 03:20:47;;;;;;;4.63;2.30;;;;;;;-144.47;62.90;53308.97;4988669;28;20028;-68
2022/06/06 03:23:34;;;;;;;6.15;2.47;;;;;;;-144.47;62.98;53316.91;4988772;28;20023;-67
2022/06/06 03:26:05;;;;;;;7.65;2.20;;;;;;;-144.47;63.20;53297.03;4988209;28;20116;-67
2022/06/06 03:28:46;;;;;;;7.47;2.10;;;;;;;-144.47;62.87;53312.94;4983416;28;20042;-67
2022/06/06 03:31:45;;;;;;;4.00;1.80;;;;;;;-144.47;62.72;53269.22;4988197;28;20035;-67
2022/06/06 03:34:23;;;;;;;4.75;2.22;;;;;;;-144.47;62.68;53326.84;4988497;28;20670;-68
2022/06/06 03:36:56;;;;;;;3.30;2.10;;;;;;;-144.47;62.86;53293.06;4983523;28;20361;-67
2022/06/06 03:39:26;;;;;;;4.55;2.10;;;;;;;-144.47;63.18;53301.03;4970161;28;20052;-67
2022/06/06 03:42:10;;;;;;;9.05;1.90;;;;;;;-144.47;62.83;53295.06;4988173;28;20464;-67
2022/06/06 03:44:54;;;;;;;4.45;2.05;;;;;;;-144.47;62.87;53301.03;4987963;28;20026;-68
2022/06/06 03:47:50;;;;;;;4.32;1.90;;;;;;;-144.47;63.14;53310.94;4987946;28;20054;-69
2022/06/06 03:50:29;;;;;;;2.88;1.70;;;;;;;-144.47;63.43;53322.88;4987396;28;20029;-65
2022/06/06 03:53:05;;;;;;;5.72;2.30;;;;;;;-144.47;63.41;53285.13;4988291;28;20511;-67
2022/06/06 03:55:33;;;;;;;6.07;1.92;;;;;;;-144.47;63.61;53305.00;4988065;28;20461;-67
2022/06/06 03:58:03;;;;;;;3.53;2.10;;;;;;;-144.47;63.89;53340.75;4988024;28;20377;-67
2022/06/06 04:00:28;;;;;;;5.53;2.20;;;;;;;-144.47;63.85;53291.09;5034660;22;20047;-69
2022/06/06 04:02:55;;;;;;;5.72;2.20;;;;;;;-144.47;64.07;53326.84;5031398;28;20025;-69
2022/06/06 04:05:25;;;;;;;5.55;2.22;;;;;;;-144.47;64.35;53314.91;5048517;28;20021;-68
2022/06/06 04:07:50;;;;;;;3.50;2.10;;;;;;;-144.47;64.52;53338.75;5047661;28;20483;-69
2022/06/06 04:10:16;;;;;;;6.47;2.05;;;;;;;-144.47;65.10;53348.69;5048006;28;20151;-69
2022/06/06 04:12:57;;;;;;;10.07;2.63;;;;;;;-144.47;65.64;53322.88;5030312;28;20035;-69
2022/06/06 04:15:30;;;;;;;8.18;2.40;;;;;;;-144.47;65.67;53303.00;5040735;28;20080;-68
2022/06/06 04:18:26;;;;;;;4.10;2.38;;;;;;;-144.47;65.62;53308.97;5049094;28;20171;-70
2022/06/06 04:21:28;;;;;;;4.55;2.15;;;;;;;-144.47;65.63;53364.59;5011148;28;20047;-68
2022/06/06 04:24:02;;;;;;;3.97;2.13;;;;;;;-144.47;65.64;53328.81;5031060;28;20051;-68
2022/06/06 04:26:42;;;;;;;6.13;2.30;;;;;;;-144.47;65.62;53297.03;5048146;28;20041;-69
2022/06/06 04:29:19;;;;;;;6.10;2.65;;;;;;;-144.47;65.89;53336.78;5051356;28;20024;-69
2022/06/06 04:32:01;;;;;;;3.67;2.38;;;;;;;-144.47;66.09;53306.97;5048092;28;20029;-68
2022/06/06 04:35:07;;;;;;;5.85;2.60;;;;;;;-144.47;66.30;53334.78;5048083;28;20520;-70
2022/06/06 04:37:47;;;;;;;4.20;2.38;;;;;;;-144.47;66.36;53310.94;5048806;28;20056;-68
2022/06/06 04:40:37;;;;;;;4.47;2.25;;;;;;;-144.47;66.10;53312.94;5051971;28;20033;-68
2022/06/06 04:43:13;;;;;;;3.65;2.25;;;;;;;-144.47;65.86;53308.97;5052366;28;20100;-69
2022/06/06 04:46:11;;;;;;;4.90;2.65;;;;;;;-144.47;65.12;53305.00;5051820;28;20107;-69
2022/06/06 04:48:38;;;;;;;6.65;2.53;;;;;;;-144.47;65.07;53293.06;5042658;28;20043;-69
2022/06/06 04:51:05;;;;;;;4.40;2.30;;;;;;;-144.47;64.93;53326.84;5048145;28;20112;-70
2022/06/06 04:53:37;;;;;;;4.97;2.90;;;;;;;-144.47;64.82;53346.72;5051969;28;20032;-68
2022/06/06 04:56:03;;;;;;;5.55;3.45;;;;;;;-144.47;65.03;53318.91;5051943;28;20028;-69
2022/06/06 04:58:32;;;;;;;6.55;2.90;;;;;;;-144.47;65.00;53295.06;5050798;28;20096;-70
2022/06/06 05:01:00;;;;;;;5.78;2.55;;;;;;;-144.47;65.19;53314.91;5051277;28;20120;-69
2022/06/06 05:03:26;;;;;;;;;;;;;;;-144.47;65.21;53368.56;5053131;28;20021;-68
2022/06/06 05:05:57;;;;;;;3.85;2.55;;;;;;;-144.47;65.05;53352.66;5051437;28;20011;-67
2022/06/06 05:08:34;;;;;;;4.30;2.67;;;;;;;-144.47;65.22;53340.75;5050870;28;20032;-68
2022/06/06 05:11:23;;;;;;;7.22;3.63;;;;;;;-144.47;65.06;53340.75;5052344;28;20021;-69
2022/06/06 05:13:57;;;;;;;7.13;2.40;;;;;;;-144.47;65.09;53336.78;5046318;28;20026;-68
2022/06/06 05:16:32;;;;;;;7.63;3.10;;;;;;;-144.47;65.15;53324.84;5050732;28;20096;-68
2022/06/06 05:19:36;;;;;;;6.03;2.88;;;;;;;-144.47;65.32;53320.88;5020440;28;20453;-69
2022/06/06 05:22:33;;;;;;;6.75;2.83;;;;;;;-144.47;65.54;53342.72;5047366;28;20033;-67
2022/06/06 05:25:53;;;;;;;4.20;2.53;;;;;;;-144.47;65.51;53303.00;5050087;28;20029;-68
2022/06/06 05:28:45;;;;;;;9.63;3.00;;;;;;;-144.47;65.81;53297.03;4996332;28;20048;-66
2022/06/06 05:31:26;;;;;;;6.20;2.45;;;;;;;-144.47;65.83;53314.91;5050230;28;20120;-66
2022/06/06 05:34:10;;;;;;;5.50;2.33;;;;;;;-144.47;65.28;53293.06;5051443;28;20060;-65
2022/06/06 05:36:58;;;;;;;4.90;2.92;;;;;;;-144.47;65.04;53293.06;5045925;28;20021;-68
2022/06/06 05:39:35;;;;;;;7.95;2.72;;;;;;;-144.47;64.82;53324.84;5050620;28;20039;-66
2022/06/06 05:42:14;;;;;;;4.50;2.50;;;;;;;-144.47;64.97;53310.94;5050713;28;20506;-69
2022/06/06 05:44:42;;;;;;;;;;;;;;;-144.47;65.07;53293.06;5051569;28;20049;-66
2022/06/06 05:47:49;;;;;;;5.18;2.22;;;;;;;-144.47;64.64;53310.94;5050483;28;19912;-67
2022/06/06 05:50:28;;;;;;;4.10;2.05;;;;;;;-144.47;64.21;53328.81;4993920;28;20037;-66
2022/06/06 05:53:31;;;;;;;4.60;2.25;;;;;;;-144.47;63.46;53318.91;5051311;28;20037;-67
2022/06/06 05:56:12;;;;;;;4.35;2.70;;;;;;;-144.47;63.51;53318.91;5050687;28;20040;-68
2022/06/06 05:59:03;;;;;;;5.78;2.40;;;;;;;-144.47;63.16;53320.88;5049503;28;20605;-68
2022/06/06 06:01:50;;;;;;;3.38;1.88;;;;;;;-144.47;60.43;53308.97;5039373;28;20036;-65
2022/06/06 06:04:21;;;;;;;5.22;1.73;;;;;;;-144.47;60.74;53308.97;5045172;28;20454;-66
2022/06/06 06:06:49;;;;;;;3.53;1.80;;;;;;;-144.47;60.50;53310.94;5044701;28;20060;-66
2022/06/06 06:09:42;;;;;;;4.35;1.88;;;;;;;-144.47;60.35;53330.81;5034464;28;20029;-66
2022/06/06 06:12:33;;;;;;;5.05;1.75;;;;;;;-144.47;60.65;53301.03;5042976;28;20036;-68
2022/06/06 06:15:07;;;;;;;3.50;1.70;;;;;;;-144.47;60.37;53269.22;5044563;28;20024;-65
2022/06/06 06:17:35;;;;;;;5.55;2.08;;;;;;;-144.47;60.36;53322.88;5042455;28;20496;-69
2022/06/06 06:20:04;;;;;;;3.13;1.73;;;;;;;-144.47;59.72;53299.03;5047650;28;20512;-66
2022/06/06 06:22:40;;;;;;;5.03;2.10;;;;;;;-144.47;59.56;53314.91;5046323;28;20040;-66
2022/06/06 06:25:08;;;;;;;2.83;1.50;;;;;;;-144.47;59.29;53346.72;5045376;28;20029;-66
2022/06/06 06:27:34;;;;;;;4.87;1.90;;;;;;;-144.47;58.69;53299.03;5044292;28;20398;-70
2022/06/06 06:30:00;;;;;;;3.42;1.70;;;;;;;-144.47;58.35;53281.16;5046785;28;20133;-68
2022/06/06 06:32:51;;;;;;;8.15;1.90;;;;;;;-144.47;58.16;53326.84;5047527;28;20027;-69
2022/06/06 06:35:26;;;;;;;2.90;1.50;;;;;;;-144.47;57.73;53283.13;5046195;28;20434;-68
2022/06/06 06:38:30;;;;;;;2.83;1.60;;;;;;;-144.47;57.49;53285.13;5047628;28;20028;-69
2022/06/06 06:41:18;;;;;;;4.38;1.92;;;;;;;-144.47;57.20;53285.13;5038112;28;20040;-68
2022/06/06 06:43:54;;;;;;;;;;;;;;;-144.47;56.95;53324.84;5044526;28;20071;-69
2022/06/06 06:46:26;;;;;;;4.35;1.90;;;;;;;-144.47;57.58;53241.44;5048632;28;19909;-70
2022/06/06 06:49:21;;;;;;;3.35;1.80;;;;;;;-144.47;57.42;53271.22;5044910;28;20033;-69
2022/06/06 06:52:37;;;;;;;3.60;1.70;;;;;;;-144.47;57.06;53259.31;5012045;28;20676;-68
2022/06/06 06:55:14;;;;;;;5.63;1.92;;;;;;;-144.47;56.20;53257.31;5031945;28;20041;-68
2022/06/06 06:58:16;;;;;;;3.95;2.35;;;;;;;-144.47;56.67;53305.00;5049740;28;20029;-67
2022/06/06 07:01:04;;;;;;;3.45;1.88;;;;;;;-144.47;55.89;53265.25;5047632;28;20502;-70
2022/06/06 07:09:53;;;;;;;5.55;2.03;;;;;;;-144.47;55.13;53281.16;5049244;28;20048;-69
2022/06/06 07:12:49;;;;;;;4.95;1.85;;;;;;;-144.47;55.17;53295.06;5049346;28;20036;-67
2022/06/06 07:15:21;;;;;;;3.20;1.83;;;;;;;-144.47;54.88;53291.09;5049504;28;20073;-68
2022/06/06 07:17:55;;;;;;;4.75;1.90;;;;;;;-144.47;54.53;53305.00;5049057;28;20044;-70
2022/06/06 07:20:21;;;;;;;4.60;1.98;;;;;;;-144.47;54.16;53257.31;5048910;28;20167;-66
2022/06/06 07:23:11;;;;;;;3.78;1.80;;;;;;;-144.47;53.17;53277.19;5049442;28;20463;-69
2022/06/06 07:25:40;;;;;;;4.32;1.75;;;;;;;-144.47;52.31;53273.22;5049870;28;20432;-70
2022/06/06 07:28:09;;;;;;;3.85;1.88;;;;;;;-144.47;52.52;53269.22;5051211;28;20017;-70
2022/06/06 07:30:41;;;;;;;5.53;2.20;;;;;;;-144.47;52.54;53289.09;5045518;28;20025;-67
2022/06/06 07:33:33;;;;;;;5.85;2.10;;;;;;;-144.47;51.52;53261.28;5048796;28;20475;-69
2022/06/06 07:36:19;;;;;;;3.30;1.88;;;;;;;-144.47;51.07;53245.41;5043858;28;20020;-67
2022/06/06 07:39:02;;;;;;;7.10;2.85;;;;;;;-144.47;51.25;53249.38;5048607;28;20132;-70
2022/06/06 07:41:39;;;;;;;3.45;1.95;;;;;;;-144.47;50.44;53251.34;5049206;28;20029;-69
2022/06/06 07:44:14;;;;;;;4.15;1.95;;;;;;;-144.47;50.85;53305.00;5024436;28;20036;-68
2022/06/06 07:46:42;;;;;;;5.38;1.98;;;;;;;-144.47;50.35;53247.38;5052222;28;20319;-70
2022/06/06 07:49:26;;;;;;;3.63;1.70;;;;;;;-144.47;50.71;53273.22;5043940;28;20063;-73
2022/06/06 07:52:19;;;;;;;11.00;2.03;;;;;;;-144.47;51.03;53257.31;5048538;28;20056;-69
2022/06/06 07:55:00;;;;;;;5.80;1.90;;;;;;;-144.47;50.35;53249.38;5045339;28;20544;-71
2022/06/06 07:57:38;;;;;;;3.80;1.80;;;;;;;-144.47;50.04;53241.44;5041909;28;20028;-68
2022/06/06 08:00:12;;;;;;;4.15;1.90;;;;;;;-144.47;50.15;53227.53;5046484;28;20029;-68
2022/06/06 08:02:50;;;;;;;4.47;1.92;;;;;;;-144.47;49.43;53225.53;5032049;28;20029;-68
2022/06/06 08:05:37;;;;;;;10.32;2.05;;;;;;;-144.47;49.02;53225.53;5037586;28;20099;-70
2022/06/06 08:08:30;;;;;;;4.38;1.85;;;;;;;-144.47;48.02;53261.28;5038647;28;20029;-68
2022/06/06 08:11:09;;;;;;;4.88;2.22;;;;;;;-144.47;47.82;53261.28;5008903;28;20041;-68
2022/06/06 08:13:50;;;;;;;4.03;2.28;;;;;;;-144.47;47.92;53277.19;5040414;28;20033;-70
2022/06/06 08:16:21;;;;;;;3.53;1.55;;;;;;;-144.47;48.01;53241.44;5042687;28;20418;-70
2022/06/06 08:19:14;;;;;;;3.47;1.90;;;;;;;-144.47;47.42;53273.22;5045036;28;20436;-70
2022/06/06 08:21:46;;;;;;;3.20;1.75;;;;;;;-144.47;48.14;53221.56;5044359;28;20351;-69
2022/06/06 08:24:15;;;;;;;5.88;2.10;;;;;;;-144.47;47.09;53239.44;5044345;28;20499;-68
2022/06/06 08:26:43;;;;;;;4.00;1.92;;;;;;;-144.47;46.73;53235.47;5043840;28;20032;-70
2022/06/06 08:29:09;;;;;;;5.00;2.08;;;;;;;-144.47;46.87;53227.53;5044842;28;20167;-69
2022/06/06 08:31:36;;;;;;;3.17;1.60;;;;;;;-144.47;47.01;53251.34;5044230;28;20480;-70
2022/06/06 08:34:02;;;;;;;4.88;1.73;;;;;;;-144.47;46.80;53211.63;5027175;28;20091;-68
2022/06/06 08:36:34;;;;;;;5.25;2.08;;;;;;;-144.47;46.86;53265.25;5045180;28;20461;-71
2022/06/06 08:39:08;;;;;;;5.38;1.98;;;;;;;-144.47;46.39;53173.88;5042287;28;20036;-71
2022/06/06 08:41:51;;;;;;;4.82;2.00;;;;;;;-144.47;45.78;53201.69;5043808;28;20112;-68
2022/06/06 08:44:27;;;;;;;3.78;1.70;;;;;;;-144.47;46.01;53249.38;5044707;28;20025;-68
2022/06/06 08:47:07;;;;;;;7.43;1.80;;;;;;;-144.47;45.78;53223.56;5045610;28;20083;-69
2022/06/06 08:52:45;;;;;;;4.28;1.80;;;;;;;-144.47;46.50;53213.63;5044158;28;20083;-69
2022/06/06 08:55:16;;;;;;;3.70;1.80;;;;;;;-144.47;44.82;53237.44;5044930;28;20100;-72
2022/06/06 08:58:01;;;;;;;2.90;1.65;;;;;;;-144.47;44.88;53249.38;5044012;28;20025;-70
2022/06/06 09:01:13;;;;;;;5.88;2.30;;;;;;;-144.47;44.62;53199.72;5044350;28;20062;-69
2022/06/06 09:04:06;;;;;;;4.28;1.80;;;;;;;-144.47;45.43;53213.63;5011929;28;20025;-69
2022/06/06 09:06:59;;;;;;;2.00;1.30;;;;;;;-144.47;45.01;53227.53;5050521;28;20017;-70
2022/06/06 09:10:03;;;;;;;3.90;1.80;;;;;;;-144.47;44.21;53227.53;5050171;28;20025;-68
2022/06/06 09:12:34;;;;;;;6.05;2.00;;;;;;;-144.47;44.56;53203.69;5046979;28;20132;-67
2022/06/06 09:15:15;;;;;;;3.17;1.70;;;;;;;-144.47;44.42;53185.81;5044615;28;20078;-67
2022/06/06 09:17:52;;;;;;;7.90;2.22;;;;;;;-144.47;43.87;53213.63;5043416;28;20032;-69
2022/06/06 09:20:20;;;;;;;5.87;2.00;;;;;;;-144.47;43.18;53213.63;5042275;28;20037;-69
2022/06/06 09:23:18;;;;;;;4.18;1.88;;;;;;;-144.47;43.89;53217.59;5027276;28;20033;-67
2022/06/06 09:26:03;;;;;;;3.97;1.92;;;;;;;-144.47;44.08;53213.63;5046070;28;20049;-66
2022/06/06 09:28:52;;;;;;;7.05;1.95;;;;;;;-144.47;44.04;53223.56;5038547;28;20094;-72
2022/06/06 09:31:21;;;;;;;5.18;1.77;;;;;;;-144.47;44.21;53241.44;5043372;28;20032;-67
2022/06/06 09:34:10;;;;;;;4.97;2.22;;;;;;;-144.47;43.96;53233.47;5037379;28;20650;-68
2022/06/06 09:36:50;;;;;;;8.80;2.20;;;;;;;-144.47;42.87;53237.44;5051462;28;20024;-70
2022/06/06 09:39:25;;;;;;;1.92;1.48;;;;;;;-144.47;42.87;53223.56;5047133;28;20070;-71
2022/06/06 09:42:15;;;;;;;4.45;1.67;;;;;;;-144.47;43.03;53217.59;5043094;28;20029;-70
2022/06/06 09:45:11;;;;;;;4.20;1.92;;;;;;;-144.47;42.08;53219.56;5040509;28;20381;-69
2022/06/06 09:47:39;;;;;;;5.32;2.50;;;;;;;-144.47;42.51;53237.44;5040040;28;20025;-67
2022/06/06 09:50:33;;;;;;;6.10;2.15;;;;;;;-144.47;43.30;53211.63;5043802;28;20029;-69
2022/06/06 09:53:43;;;;;;;4.35;1.60;;;;;;;-144.47;42.71;53173.88;5048643;28;20441;-69
2022/06/06 09:59:38;;;;;;;4.55;1.80;;;;;;;-144.47;43.43;53233.47;5039657;28;20071;-70
2022/06/06 10:02:30;;;;;;;3.75;1.90;;;;;;;-144.47;42.53;53215.59;5023630;22;20095;-71
2022/06/06 10:05:14;;;;;;;5.63;1.70;;;;;;;-144.47;42.91;53225.53;4984660;28;20438;-70
2022/06/06 10:08:17;;;;;;;2.72;1.67;;;;;;;-144.47;42.45;53221.56;5002397;28;20187;-69
2022/06/06 10:11:20;;;;;;;4.95;1.90;;;;;;;-144.47;42.61;53201.69;4999510;28;20022;-70
2022/06/06 10:14:30;;;;;;;7.18;2.20;;;;;;;-144.47;41.87;53209.66;5005661;28;20068;-69
2022/06/06 10:17:17;;;;;;;7.68;1.70;;;;;;;-144.47;41.61;53215.59;5013244;28;20101;-70
2022/06/06 10:19:47;;;;;;;5.78;2.15;;;;;;;-144.47;40.98;53221.56;5002515;28;20157;-67
2022/06/06 10:22:37;;;;;;;3.40;1.60;;;;;;;-144.47;40.88;53211.63;5003605;28;20037;-68
2022/06/06 10:25:24;;;;;;;3.13;1.80;;;;;;;-144.47;40.88;53207.66;5003572;28;20018;-71
2022/06/06 10:28:15;;;;;;;8.15;1.77;;;;;;;-144.47;40.83;53189.78;5005237;28;20373;-69
2022/06/06 10:30:49;;;;;;;3.92;2.17;;;;;;;-144.47;40.63;53209.66;4996100;28;20467;-70
2022/06/06 10:33:25;;;;;;;4.53;1.80;;;;;;;-144.47;40.51;53169.91;4994590;28;20033;-70
2022/06/06 10:36:14;;;;;;;3.58;1.83;;;;;;;-144.47;40.29;53177.88;5003537;28;20033;-71
2022/06/06 10:39:02;;;;;;;2.83;1.73;;;;;;;-144.47;39.96;53187.78;4996904;28;20117;-70
2022/06/06 10:41:42;;;;;;;4.68;1.70;;;;;;;-144.47;38.82;53207.66;4988137;28;20030;-70
2022/06/06 10:44:07;;;;;;;3.13;1.40;;;;;;;-144.47;38.98;53199.72;5008007;28;20123;-73
2022/06/06 10:46:35;;;;;;;3.30;1.50;;;;;;;-144.47;38.65;53140.13;5008032;28;20093;-68
2022/06/06 10:49:00;;;;;;;4.47;1.90;;;;;;;-144.47;39.76;53167.94;5007687;28;20526;-70
2022/06/06 10:51:39;;;;;;;4.18;1.52;;;;;;;-144.47;38.98;53197.72;5001318;28;20065;-69
2022/06/06 10:54:22;;;;;;;5.20;1.60;;;;;;;-144.47;39.09;53173.88;5007731;28;20018;-71
2022/06/06 10:57:00;;;;;;;3.28;1.83;;;;;;;-144.47;39.08;53207.66;5007538;28;20021;-66
2022/06/06 10:59:44;;;;;;;3.60;1.52;;;;;;;-144.47;39.01;53185.81;5006757;28;20448;-67
2022/06/06 11:02:26;;;;;;;3.03;1.50;;;;;;;-144.47;38.30;53175.88;5005025;28;20040;-69
2022/06/06 11:05:19;;;;;;;3.28;1.70;;;;;;;-144.47;38.15;53158.00;5008853;28;20430;-71
2022/06/06 11:08:07;;;;;;;3.22;1.58;;;;;;;-144.47;38.01;53177.88;5007425;28;20603;-69
2022/06/06 11:10:59;;;;;;;4.43;1.60;;;;;;;-144.47;37.22;53165.94;5003757;28;20156;-68
2022/06/06 11:13:43;;;;;;;5.82;1.58;;;;;;;-144.47;36.44;53189.78;5007098;28;20030;-69
2022/06/06 11:16:40;;;;;;;5.03;1.90;;;;;;;-144.47;36.30;53140.13;4991718;28;20459;-67
2022/06/06 11:19:17;;;;;;;2.42;1.40;;;;;;;-144.47;36.52;53120.25;5002334;28;20034;-68
2022/06/06 11:22:06;;;;;;;2.72;1.52;;;;;;;-144.47;36.38;53150.06;4998955;28;20411;-66
2022/06/06 11:24:47;;;;;;;3.70;1.60;;;;;;;-144.47;36.80;53128.22;4983006;28;20070;-69
2022/06/06 11:27:17;;;;;;;3.60;1.80;;;;;;;-144.47;36.43;53197.72;4999744;28;20037;-68
2022/06/06 11:29:55;;;;;;;3.55;1.75;;;;;;;-144.47;36.95;53169.91;4999915;28;20048;-70
2022/06/06 11:32:35;;;;;;;3.97;2.00;;;;;;;-144.47;36.98;53154.03;4998705;28;20194;-68
2022/06/06 11:35:26;;;;;;;3.58;1.40;;;;;;;-144.47;36.01;53169.91;5001116;28;20101;-70
2022/06/06 11:38:06;;;;;;;4.55;1.48;;;;;;;-144.47;36.10;53193.75;5000352;28;20062;-69
2022/06/06 11:40:35;;;;;;;3.35;1.45;;;;;;;-144.47;36.54;53173.88;4999397;28;20051;-68
2022/06/06 11:43:18;;;;;;;3.90;1.70;;;;;;;-144.47;37.15;53201.69;5002688;28;20095;-70
2022/06/06 11:46:06;;;;;;;3.05;1.40;;;;;;;-144.47;36.83;53160.00;5004805;28;20637;-69
2022/06/06 11:48:53;;;;;;;3.03;1.50;;;;;;;-144.47;35.83;53144.09;4999978;28;20045;-67
2022/06/06 11:51:40;;;;;;;5.88;1.48;;;;;;;-144.47;36.18;53138.13;5000379;28;20034;-67
2022/06/06 11:54:34;;;;;;;2.83;1.55;;;;;;;-144.47;36.16;53181.84;5006702;28;20022;-69
2022/06/06 11:57:18;;;;;;;3.08;1.30;;;;;;;-144.47;35.56;53148.06;5007273;28;20109;-69
2022/06/06 12:00:11;;;;;;;2.70;1.33;;;;;;;-144.47;35.41;53195.75;5000790;28;20053;-67
2022/06/06 12:03:10;;;;;;;4.18;1.52;;;;;;;-144.47;34.86;53211.63;5002986;28;20395;-68
2022/06/06 12:06:02;;;;;;;2.85;1.30;;;;;;;-144.47;34.96;53175.88;4999259;28;20021;-68
2022/06/06 12:08:47;;;;;;;2.63;1.23;;;;;;;-144.47;35.04;53191.78;5003026;28;20111;-67
2022/06/06 12:11:27;;;;;;;2.35;1.35;;;;;;;-144.47;35.19;53165.94;5000987;28;20045;-68
2022/06/06 12:14:14;;;;;;;2.75;1.30;;;;;;;-144.47;35.51;53187.78;5003754;28;20152;-68
2022/06/06 12:17:08;;;;;;;3.33;1.67;;;;;;;-144.47;35.30;53181.84;5003983;28;20532;-69
2022/06/06 12:19:35;;;;;;;3.25;1.38;;;;;;;-144.47;35.36;53163.97;5005978;28;20045;-70
2022/06/06 12:22:28;;;;;;;2.78;1.30;;;;;;;-144.47;35.48;53175.88;5004046;28;20041;-69
2022/06/06 12:25:24;;;;;;;2.55;1.33;;;;;;;-144.47;35.56;53167.94;5000671;28;20038;-70
2022/06/06 12:28:10;;;;;;;5.18;1.50;;;;;;;-144.47;35.85;53175.88;5001320;28;20029;-69
2022/06/06 12:30:54;;;;;;;4.82;1.65;;;;;;;-144.47;34.67;53160.00;4972570;28;20463;-68